Time;durP1;ratioP1;P1;durP2;ratioP2;P2;SDS_P1;SDS_P2;PMS_P1;PMS_P2;Temp;Humidity;BMP_temperature;BMP_pressure;BME280_temperature;BME280_humidity;BME280_pressure;Samples;Min_cycle;Max_cycle;Signal;HPM_P1;HPM_P2
2022/12/12 00:00:09;;;;;;;;;;;;;;;4.00;58.79;99291.31;5047022;28;20296;-58
2022/12/12 00:02:37;;;;;;;;;;;;;;;3.94;58.70;99287.03;5040870;28;19966;-58
2022/12/12 00:05:04;;;;;;;;;;;;;;;4.07;58.39;99281.69;5044919;28;19921;-57
2022/12/12 00:07:29;;;;;;;;;;;;;;;4.18;58.22;99285.88;5040376;28;19982;-59
2022/12/12 00:09:54;;;;;;;;;;;;;;;4.17;58.16;99278.94;5037149;28;20391;-57
2022/12/12 00:12:20;;;;;;;;;;;;;;;4.16;58.18;99279.00;5045211;28;19929;-57
2022/12/12 00:14:45;;;;;;;;;;;;;;;4.16;58.27;99282.44;5051332;28;20019;-56
2022/12/12 00:17:10;;;;;;;;;;;;;;;4.08;58.34;99279.09;5042059;28;19925;-56
2022/12/12 00:19:36;;;;;;;;;;;;;;;4.04;58.46;99284.34;5033706;28;20335;-56
2022/12/12 00:22:01;;;;;;;;;;;;;;;3.96;58.72;99287.03;5037672;28;19925;-57
2022/12/12 00:24:26;;;;;;;;;;;;;;;4.05;58.66;99276.50;5037579;28;20016;-56
2022/12/12 00:26:51;;;;;;;;;;;;;;;4.07;58.52;99277.38;5037314;28;20384;-58
2022/12/12 00:29:17;;;;;;;;;;;;;;;4.10;58.44;99279.06;5038046;28;19932;-57
2022/12/12 00:31:42;;;;;;;;;;;;;;;4.06;58.47;99283.44;5041916;28;20376;-57
2022/12/12 00:34:07;;;;;;;;;;;;;;;4.00;58.57;99287.88;5050607;28;20096;-57
2022/12/12 00:36:32;;;;;;;;;;;;;;;4.25;58.02;99281.44;5040301;28;19933;-57
2022/12/12 00:38:58;;;;;;;;;;;;;;;4.19;57.76;99272.00;5037641;28;20358;-57
2022/12/12 00:41:24;;;;;;;;;;;;;;;4.19;57.67;99276.34;5038147;28;19925;-56
2022/12/12 00:43:49;;;;;;;;;;;;;;;4.17;57.94;99278.09;5040221;28;20381;-57
2022/12/12 00:46:16;;;;;;;;;;;;;;;4.17;57.58;99278.94;5037720;28;20000;-57
2022/12/12 00:48:42;;;;;;;;;;;;;;;4.33;57.44;99279.59;5047455;28;19921;-58
2022/12/12 00:51:08;;;;;;;;;;;;;;;4.37;57.28;99285.63;5044882;28;19921;-58
2022/12/12 00:53:34;;;;;;;;;;;;;;;4.50;56.85;99289.75;5037682;28;19921;-57
2022/12/12 00:56:00;;;;;;;;;;;;;;;4.59;56.66;99288.81;5037199;28;19929;-57
2022/12/12 00:58:25;;;;;;;;;;;;;;;4.47;56.89;99292.44;5048372;28;19924;-58
2022/12/12 01:00:51;;;;;;;;;;;;;;;4.46;57.03;99288.09;5044993;28;20015;-56
2022/12/12 01:03:17;;;;;;;;;;;;;;;4.48;57.03;99296.75;5040245;28;19974;-56
2022/12/12 01:05:43;;;;;;;;;;;;;;;4.55;56.92;99285.38;5036977;28;19928;-56
2022/12/12 01:08:08;;;;;;;;;;;;;;;4.52;56.98;99279.34;5051337;28;19925;-58
2022/12/12 01:10:33;;;;;;;;;;;;;;;4.45;57.14;99283.78;5044275;28;19925;-55
2022/12/12 01:12:59;;;;;;;;;;;;;;;4.51;56.93;99286.31;5051275;28;19968;-56
2022/12/12 01:15:25;;;;;;;;;;;;;;;4.41;57.41;99287.31;5046347;28;19921;-56
2022/12/12 01:17:50;;;;;;;;;;;;;;;4.34;57.40;99280.47;5050898;28;19925;-56
2022/12/12 01:20:18;;;;;;;;;;;;;;;4.28;57.66;99277.97;5044973;28;19932;-56
2022/12/12 01:22:43;;;;;;;;;;;;;;;4.29;57.64;99272.72;5044658;28;20008;-57
2022/12/12 01:25:09;;;;;;;;;;;;;;;4.38;57.48;99267.38;5050775;28;20042;-58
2022/12/12 01:27:35;;;;;;;;;;;;;;;4.44;57.17;99264.72;5046570;28;19963;-56
2022/12/12 01:30:01;;;;;;;;;;;;;;;4.39;57.24;99266.53;5048628;28;19968;-58
2022/12/12 01:32:27;;;;;;;;;;;;;;;4.26;57.70;99264.09;5044579;28;19921;-57
2022/12/12 01:34:53;;;;;;;;;;;;;;;4.37;57.46;99267.44;5049167;28;19963;-57
2022/12/12 01:37:18;;;;;;;;;;;;;;;4.47;57.11;99265.53;5046264;28;19925;-57
2022/12/12 01:39:43;;;;;;;;;;;;;;;4.51;57.37;99262.91;5036428;28;20339;-56
2022/12/12 01:42:13;;;;;;;;;;;;;;;4.48;57.26;99254.28;5041044;28;19932;-58
2022/12/12 01:44:38;;;;;;;;;;;;;;;4.29;57.63;99257.13;5035612;28;20048;-57
2022/12/12 01:47:04;;;;;;;;;;;;;;;4.25;57.74;99257.19;5044992;28;20016;-58
2022/12/12 01:49:30;;;;;;;;;;;;;;;4.09;58.00;99259.16;5050168;28;19933;-56
2022/12/12 01:52:00;;;;;;;;;;;;;;;4.38;57.44;99250.94;5038974;28;20357;-57
2022/12/12 01:54:26;;;;;;;;;;;;;;;4.16;57.70;99240.00;5035855;28;19935;-56
2022/12/12 01:56:53;;;;;;;;;;;;;;;4.01;58.24;99246.25;5036262;28;19960;-56
2022/12/12 01:59:20;;;;;;;;;;;;;;;4.15;57.86;99248.69;5035620;28;19928;-57
2022/12/12 02:01:45;;;;;;;;;;;;;;;4.06;57.90;99257.44;5040858;28;19973;-56
2022/12/12 02:04:11;;;;;;;;;;;;;;;4.29;57.97;99248.47;5045795;28;20289;-58
2022/12/12 02:06:37;;;;;;;;;;;;;;;4.30;58.24;99248.44;5049076;28;19924;-58
2022/12/12 02:09:07;;;;;;;;;;;;;;;4.27;58.23;99247.63;5041423;28;19922;-58
2022/12/12 02:11:34;;;;;;;;;;;;;;;4.43;57.66;99238.75;5034324;28;19928;-58
2022/12/12 02:13:59;;;;;;;;;;;;;;;4.52;57.29;99230.78;5035836;28;19921;-57
2022/12/12 02:16:39;;;;;;;;;;;;;;;4.73;56.88;99231.31;5035405;28;19939;-58
2022/12/12 02:19:32;;;;;;;;;;;;;;;4.65;56.63;99227.09;5036000;28;19971;-54
2022/12/12 02:22:17;;;;;;;;;;;;;;;4.66;56.65;99221.00;5038719;28;19921;-55
2022/12/12 02:25:01;;;;;;;;;;;;;;;4.56;56.66;99219.44;5039420;28;19921;-58
2022/12/12 02:27:39;;;;;;;;;;;;;;;4.48;56.80;99223.06;5036455;28;20380;-58
2022/12/12 02:30:20;;;;;;;;;;;;;;;4.57;56.41;99225.50;5049163;28;19921;-57
2022/12/12 02:33:00;;;;;;;;;;;;;;;4.41;56.34;99209.28;5035672;28;19921;-57
2022/12/12 02:35:32;;;;;;;;;;;;;;;4.56;56.20;99218.59;5039709;28;19928;-55
2022/12/12 02:38:00;;;;;;;;;;;;;;;4.56;56.17;99218.59;5040296;28;19944;-56
2022/12/12 02:40:31;;;;;;;;;;;;;;;4.53;56.00;99218.63;5043108;28;19928;-55
2022/12/12 02:42:56;;;;;;;;;;;;;;;4.37;56.68;99212.81;5039815;28;19921;-57
2022/12/12 02:45:28;;;;;;;;;;;;;;;4.43;56.80;99217.94;5046054;28;20364;-57
2022/12/12 02:47:58;;;;;;;;;;;;;;;4.18;57.11;99217.41;5042343;28;20301;-56
2022/12/12 02:50:24;;;;;;;;;;;;;;;4.20;57.10;99213.91;5049604;28;19966;-56
2022/12/12 02:52:50;;;;;;;;;;;;;;;4.30;57.05;99213.78;5054255;28;19969;-55
2022/12/12 02:55:15;;;;;;;;;;;;;;;4.32;56.52;99215.47;5049736;28;20366;-58
2022/12/12 02:57:41;;;;;;;;;;;;;;;4.24;56.44;99206.94;5049663;28;19933;-55
2022/12/12 03:00:09;;;;;;;;;;;;;;;4.12;56.46;99207.13;5052241;28;20297;-55
2022/12/12 03:02:40;;;;;;;;;;;;;;;4.15;56.52;99196.69;5038749;28;20402;-56
2022/12/12 03:08:11;;;;;;;;;;;;;;;4.05;56.36;99208.94;5039311;28;19974;-57
2022/12/12 03:10:39;;;;;;;;;;;;;;;4.07;56.19;99204.59;5047589;28;19921;-59
2022/12/12 03:13:05;;;;;;;;;;;;;;;4.09;55.99;99192.41;5053090;28;19920;-56
2022/12/12 03:15:49;;;;;;;;;;;;;;;4.07;55.89;99196.78;5044497;28;19921;-56
2022/12/12 03:18:36;;;;;;;;;;;;;;;3.86;56.42;99200.50;5054352;28;19955;-54
2022/12/12 03:21:02;;;;;;;;;;;;;;;3.72;56.72;99194.66;5048214;28;19944;-56
2022/12/12 03:23:31;;;;;;;;;;;;;;;3.78;56.67;99196.31;5036889;28;20328;-56
2022/12/12 03:26:05;;;;;;;;;;;;;;;3.69;57.36;99197.28;5037254;28;19947;-57
2022/12/12 03:28:32;;;;;;;;;;;;;;;3.93;56.90;99196.97;5036753;28;19921;-54
2022/12/12 03:31:01;;;;;;;;;;;;;;;3.80;57.35;99197.16;5042684;28;19969;-56
2022/12/12 03:33:38;;;;;;;;;;;;;;;3.74;57.92;99199.81;5046350;28;19921;-54
2022/12/12 03:36:22;;;;;;;;;;;;;;;3.75;58.02;99185.94;5037225;28;19928;-56
2022/12/12 03:38:55;;;;;;;;;;;;;;;3.88;57.84;99184.91;5049713;28;20368;-56
2022/12/12 03:41:22;;;;;;;;;;;;;;;3.82;58.04;99185.00;5056572;28;19931;-57
2022/12/12 03:43:57;;;;;;;;;;;;;;;3.96;57.92;99193.47;5049098;28;20006;-56
2022/12/12 03:46:35;;;;;;;;;;;;;;;3.89;58.19;99178.84;5056743;28;19927;-56
2022/12/12 03:49:03;;;;;;;;;;;;;;;3.90;58.26;99181.41;5056580;28;19971;-56
2022/12/12 03:51:30;;;;;;;;;;;;;;;3.71;58.57;99179.97;5053846;28;19923;-55
2022/12/12 03:53:58;;;;;;;;;;;;;;;3.82;58.22;99180.66;5056061;28;19924;-55
2022/12/12 03:56:23;;;;;;;;;;;;;;;3.75;58.35;99189.44;5056457;28;19921;-54
2022/12/12 03:58:54;;;;;;;;;;;;;;;3.69;57.98;99190.34;5041317;28;19936;-56
2022/12/12 04:01:25;;;;;;;;;;;;;;;3.73;57.44;99188.56;5041718;28;20585;-55
2022/12/12 04:03:58;;;;;;;;;;;;;;;3.81;57.16;99185.88;5056253;28;19927;-55
2022/12/12 04:06:26;;;;;;;;;;;;;;;3.79;56.92;99185.91;5036317;28;19968;-54
2022/12/12 04:14:45;;;;;;;;;;;;;;;3.73;56.29;99198.09;5037780;28;19927;-56
2022/12/12 04:17:14;;;;;;;;;;;;;;;3.62;56.36;99193.91;5053091;28;19931;-54
2022/12/12 04:26:37;;;;;;;;;;;;;;;3.73;55.92;99187.72;5050553;28;20322;-57
2022/12/12 04:28:27;;;;;;;;;;;;;;;3.55;56.24;99181.88;5039499;28;19964;-56
2022/12/12 04:30:53;;;;;;;;;;;;;;;3.53;56.17;99185.38;5051221;28;19925;-56
2022/12/12 04:33:19;;;;;;;;;;;;;;;3.46;56.64;99185.44;5043582;28;19927;-56
2022/12/12 04:35:48;;;;;;;;;;;;;;;3.58;56.20;99179.22;5055695;28;20383;-56
2022/12/12 04:38:23;;;;;;;;;;;;;;;3.68;56.13;99190.38;5039746;28;19921;-55
2022/12/12 04:40:50;;;;;;;;;;;;;;;3.75;55.92;99184.22;5054854;28;19963;-56
2022/12/12 04:43:21;;;;;;;;;;;;;;;3.79;56.05;99192.81;5052318;28;20066;-56
2022/12/12 04:45:50;;;;;;;;;;;;;;;3.66;56.39;99179.13;5038058;28;19921;-56
2022/12/12 04:48:18;;;;;;;;;;;;;;;3.81;56.31;99181.53;5035731;28;19921;-56
2022/12/12 04:50:47;;;;;;;;;;;;;;;3.58;56.91;99186.16;5052918;28;20009;-56
2022/12/12 04:53:14;;;;;;;;;;;;;;;3.77;56.68;99184.19;5055200;28;20379;-56
2022/12/12 04:55:41;;;;;;;;;;;;;;;3.49;57.38;99183.69;5053426;28;19968;-56
2022/12/12 04:58:07;;;;;;;;;;;;;;;3.65;57.22;99180.88;5042906;28;19925;-56
2022/12/12 05:00:38;;;;;;;;;;;;;;;3.44;57.91;99181.16;5034705;28;19927;-55
2022/12/12 05:03:03;;;;;;;;;;;;;;;3.76;57.23;99174.69;5035084;28;19979;-56
2022/12/12 05:05:28;;;;;;;;;;;;;;;3.68;57.53;99167.84;5042378;28;20369;-57
2022/12/12 05:08:06;;;;;;;;;;;;;;;3.81;57.40;99160.75;5051279;28;19982;-56
2022/12/12 05:10:32;;;;;;;;;;;;;;;3.91;57.17;99158.88;5037154;28;19974;-56
2022/12/12 05:12:58;;;;;;;;;;;;;;;4.07;56.84;99165.59;5047655;28;19929;-60
2022/12/12 05:15:24;;;;;;;;;;;;;;;3.98;57.29;99168.31;5040816;28;20001;-57
2022/12/12 05:17:50;;;;;;;;;;;;;;;4.08;57.04;99161.25;5037022;28;19952;-52
2022/12/12 05:20:15;;;;;;;;;;;;;;;4.02;57.27;99171.72;5044090;28;19928;-51
2022/12/12 05:22:40;;;;;;;;;;;;;;;3.88;57.58;99171.94;5046498;28;20046;-53
2022/12/12 05:25:06;;;;;;;;;;;;;;;4.08;57.19;99154.31;5034642;28;19917;-53
2022/12/12 05:27:31;;;;;;;;;;;;;;;4.12;57.17;99163.78;5046644;28;20014;-54
2022/12/12 05:29:56;;;;;;;;;;;;;;;4.16;57.21;99173.25;5035955;28;20055;-52
2022/12/12 05:32:22;;;;;;;;;;;;;;;4.20;57.08;99161.91;5046020;28;19929;-53
2022/12/12 05:34:47;;;;;;;;;;;;;;;4.33;56.49;99162.59;5034902;28;19927;-52
2022/12/12 05:37:12;;;;;;;;;;;;;;;4.26;56.71;99152.28;5033376;28;19928;-53
2022/12/12 05:39:37;;;;;;;;;;;;;;;4.20;56.91;99159.31;5051851;28;19925;-54
2022/12/12 05:42:03;;;;;;;;;;;;;;;4.10;57.08;99152.53;5045333;28;20381;-52
2022/12/12 05:44:28;;;;;;;;;;;;;;;3.99;57.46;99146.66;5049450;28;20360;-53
2022/12/12 05:46:53;;;;;;;;;;;;;;;3.93;57.35;99146.72;5036312;28;19932;-50
2022/12/12 05:49:19;;;;;;;;;;;;;;;4.01;57.37;99144.88;5049625;28;19927;-53
2022/12/12 05:51:44;;;;;;;;;;;;;;;3.95;57.61;99152.78;5062428;28;19925;-51
2022/12/12 05:54:09;;;;;;;;;;;;;;;4.07;57.21;99156.91;5055307;28;20019;-51
2022/12/12 05:56:34;;;;;;;;;;;;;;;4.18;56.78;99149.81;5054218;28;19924;-50
2022/12/12 05:59:00;;;;;;;;;;;;;;;4.31;56.86;99145.28;5050611;28;20032;-50
2022/12/12 06:01:25;;;;;;;;;;;;;;;4.23;56.60;99142.81;5054282;28;19924;-49
2022/12/12 06:03:50;;;;;;;;;;;;;;;4.17;56.85;99150.69;5048408;28;19936;-53
2022/12/12 06:06:16;;;;;;;;;;;;;;;4.16;57.13;99157.66;5050299;28;19931;-50
2022/12/12 06:08:41;;;;;;;;;;;;;;;4.10;57.17;99156.88;5033245;28;19990;-50
2022/12/12 06:11:07;;;;;;;;;;;;;;;4.06;57.23;99169.06;5035670;28;20377;-53
2022/12/12 06:13:32;;;;;;;;;;;;;;;4.08;57.28;99159.50;5038743;28;19968;-53
2022/12/12 06:15:57;;;;;;;;;;;;;;;4.05;57.56;99156.94;5038714;28;20471;-52
2022/12/12 06:18:23;;;;;;;;;;;;;;;4.28;57.05;99159.19;5039513;28;19940;-53
2022/12/12 06:20:48;;;;;;;;;;;;;;;4.13;57.38;99156.84;5037514;28;20446;-52
2022/12/12 06:23:13;;;;;;;;;;;;;;;4.17;57.04;99159.34;5054061;28;19921;-52
2022/12/12 06:25:38;;;;;;;;;;;;;;;4.06;57.23;99160.41;5047102;28;19931;-51
2022/12/12 06:28:04;;;;;;;;;;;;;;;4.14;57.30;99162.00;5048634;28;20304;-52
2022/12/12 06:30:29;;;;;;;;;;;;;;;4.20;56.95;99155.88;5051368;28;20031;-55
2022/12/12 06:32:55;;;;;;;;;;;;;;;4.04;57.11;99157.84;5038542;28;19925;-55
2022/12/12 06:35:20;;;;;;;;;;;;;;;4.01;57.47;99154.41;5044139;28;19916;-53
2022/12/12 06:37:47;;;;;;;;;;;;;;;4.08;57.43;99158.66;5043534;28;19918;-53
2022/12/12 06:40:12;;;;;;;;;;;;;;;4.34;56.89;99150.44;5043187;28;20016;-53
2022/12/12 06:42:37;;;;;;;;;;;;;;;4.01;57.57;99151.81;5042331;28;20316;-53
2022/12/12 06:45:03;;;;;;;;;;;;;;;4.22;57.41;99155.81;5034476;28;20332;-53
2022/12/12 06:47:28;;;;;;;;;;;;;;;4.20;57.28;99145.47;5035424;28;19921;-54
2022/12/12 06:49:53;;;;;;;;;;;;;;;4.19;57.33;99156.75;5054218;28;19921;-54
2022/12/12 06:52:19;;;;;;;;;;;;;;;4.03;58.18;99156.13;5072375;28;19971;-52
2022/12/12 06:54:45;;;;;;;;;;;;;;;4.16;57.86;99151.59;5055641;28;20384;-54
2022/12/12 06:57:10;;;;;;;;;;;;;;;4.07;58.01;99146.50;5053306;28;20058;-50
2022/12/12 06:59:35;;;;;;;;;;;;;;;3.79;58.79;99156.44;5060402;28;20033;-53
2022/12/12 07:02:01;;;;;;;;;;;;;;;3.87;58.64;99159.78;5038931;28;19929;-50
2022/12/12 07:04:26;;;;;;;;;;;;;;;3.64;59.18;99163.56;5033784;28;20452;-49
2022/12/12 07:06:51;;;;;;;;;;;;;;;3.60;59.33;99155.84;5049043;28;19925;-53
2022/12/12 07:09:18;;;;;;;;;;;;;;;3.73;59.13;99156.53;5052263;28;19924;-52
2022/12/12 07:11:43;;;;;;;;;;;;;;;3.70;59.47;99152.22;5033347;28;20018;-55
2022/12/12 07:14:08;;;;;;;;;;;;;;;3.58;60.06;99158.44;5049126;28;19965;-53
2022/12/12 07:16:34;;;;;;;;;;;;;;;3.55;60.24;99149.84;5033470;28;19921;-55
2022/12/12 07:18:59;;;;;;;;;;;;;;;3.75;60.00;99139.19;5035455;28;20288;-53
2022/12/12 07:21:24;;;;;;;;;;;;;;;3.73;60.14;99139.22;5061048;28;19931;-50
2022/12/12 07:23:49;;;;;;;;;;;;;;;3.68;60.19;99151.41;5053279;28;19928;-51
2022/12/12 07:26:16;;;;;;;;;;;;;;;3.53;60.33;99136.03;5048047;28;20420;-54
2022/12/12 07:28:42;;;;;;;;;;;;;;;3.70;60.05;99136.66;5038790;28;19963;-53
2022/12/12 07:31:08;;;;;;;;;;;;;;;3.78;59.84;99139.16;5045662;28;19951;-53
2022/12/12 07:33:33;;;;;;;;;;;;;;;3.81;59.82;99123.50;5056711;28;19917;-55
2022/12/12 07:35:59;;;;;;;;;;;;;;;3.79;59.95;99130.47;5051410;28;20399;-55
2022/12/12 07:38:25;;;;;;;;;;;;;;;3.74;60.22;99142.66;5055200;28;20372;-54
2022/12/12 07:40:50;;;;;;;;;;;;;;;3.60;60.52;99141.13;5055258;28;19917;-54
2022/12/12 07:43:16;;;;;;;;;;;;;;;3.78;60.25;99133.94;5040692;28;19925;-53
2022/12/12 07:45:45;;;;;;;;;;;;;;;3.84;60.03;99132.13;5039820;28;19924;-52
2022/12/12 07:48:10;;;;;;;;;;;;;;;4.06;59.50;99129.22;5040556;28;19948;-53
2022/12/12 07:50:39;;;;;;;;;;;;;;;4.26;58.89;99126.28;5039599;28;19975;-55
2022/12/12 07:53:05;;;;;;;;;;;;;;;4.07;59.54;99121.41;5037009;28;20289;-56
2022/12/12 07:55:30;;;;;;;;;;;;;;;4.11;59.64;99125.66;5041765;28;19921;-54
2022/12/12 07:57:56;;;;;;;;;;;;;;;4.32;59.24;99118.41;5054560;28;19975;-55
2022/12/12 08:00:21;;;;;;;;;;;;;;;3.98;60.39;99131.91;5047425;28;20003;-56
2022/12/12 08:02:47;;;;;;;;;;;;;;;3.95;60.84;99138.03;5048998;28;19921;-53
2022/12/12 08:05:12;;;;;;;;;;;;;;;3.79;61.44;99130.47;5048510;28;19928;-53
2022/12/12 08:07:38;;;;;;;;;;;;;;;3.88;61.34;99138.16;5046296;28;19929;-56
2022/12/12 08:10:03;;;;;;;;;;;;;;;3.75;61.68;99126.19;5043450;28;19917;-57
2022/12/12 08:12:29;;;;;;;;;;;;;;;3.60;62.04;99120.34;5039086;28;19979;-53
2022/12/12 08:14:54;;;;;;;;;;;;;;;3.75;61.58;99139.19;5039755;28;19971;-54
2022/12/12 08:17:19;;;;;;;;;;;;;;;3.76;61.66;99161.69;5036308;28;19927;-50
2022/12/12 08:19:45;;;;;;;;;;;;;;;4.02;61.24;99132.72;5037165;28;19925;-53
2022/12/12 08:22:10;;;;;;;;;;;;;;;4.13;60.70;99123.03;5036182;28;19922;-56
2022/12/12 08:24:35;;;;;;;;;;;;;;;4.03;61.03;99129.25;5038195;28;19936;-54
2022/12/12 08:27:00;;;;;;;;;;;;;;;4.27;60.42;99125.41;5037835;28;20400;-53
2022/12/12 08:29:26;;;;;;;;;;;;;;;4.29;60.42;99127.09;5038502;28;19979;-52
2022/12/12 08:31:51;;;;;;;;;;;;;;;4.20;60.45;99130.72;5038177;28;20385;-51
2022/12/12 08:34:16;;;;;;;;;;;;;;;4.45;59.93;99123.38;5037833;28;19920;-51
2022/12/12 08:36:42;;;;;;;;;;;;;;;4.35;60.14;99133.94;5040865;28;20297;-51
2022/12/12 08:39:08;;;;;;;;;;;;;;;4.42;60.11;99117.34;5054199;28;19925;-52
2022/12/12 08:41:35;;;;;;;;;;;;;;;4.42;59.73;99115.59;5039656;28;19921;-53
2022/12/12 08:44:00;;;;;;;;;;;;;;;4.59;59.21;99127.50;5046937;28;20366;-51
2022/12/12 08:46:26;;;;;;;;;;;;;;;4.52;59.22;99125.88;5043293;28;20028;-53
2022/12/12 08:48:51;;;;;;;;;;;;;;;4.55;58.93;99124.09;5037825;28;19936;-55
2022/12/12 08:51:17;;;;;;;;;;;;;;;4.59;58.56;99133.56;5037333;28;20006;-56
2022/12/12 08:53:44;;;;;;;;;;;;;;;4.84;58.11;99138.31;5049801;28;19932;-53
2022/12/12 08:56:09;;;;;;;;;;;;;;;4.97;57.59;99128.53;5041590;28;19967;-54
2022/12/12 08:58:34;;;;;;;;;;;;;;;5.05;57.37;99124.88;5038334;28;19929;-55
2022/12/12 09:01:00;;;;;;;;;;;;;;;4.90;57.67;99138.19;5037442;28;20015;-54
2022/12/12 09:03:25;;;;;;;;;;;;;;;4.85;57.54;99133.06;5037383;28;19921;-54
2022/12/12 09:05:50;;;;;;;;;;;;;;;4.67;58.51;99136.88;5041806;28;20000;-53
2022/12/12 09:08:15;;;;;;;;;;;;;;;4.80;58.01;99128.84;5051548;28;19924;-51
2022/12/12 09:10:41;;;;;;;;;;;;;;;4.94;57.83;99132.91;5049874;28;19933;-53
2022/12/12 09:13:07;;;;;;;;;;;;;;;4.98;57.85;99131.09;5051818;28;19943;-54
2022/12/12 09:15:33;;;;;;;;;;;;;;;4.87;57.94;99138.28;5048744;28;19921;-57
2022/12/12 09:17:58;;;;;;;;;;;;;;;4.73;58.55;99132.44;5040621;28;19968;-54
2022/12/12 09:20:23;;;;;;;;;;;;;;;4.75;58.54;99135.88;5038879;28;20015;-55
2022/12/12 09:22:49;;;;;;;;;;;;;;;4.63;58.98;99142.16;5037513;28;20039;-55
2022/12/12 09:25:14;;;;;;;;;;;;;;;4.70;59.12;99139.41;5046971;28;20487;-55
2022/12/12 09:27:39;;;;;;;;;;;;;;;4.66;59.24;99148.16;5043499;28;20373;-53
2022/12/12 09:30:05;;;;;;;;;;;;;;;4.87;58.86;99136.53;5037122;28;20369;-54
2022/12/12 09:32:30;;;;;;;;;;;;;;;4.88;59.27;99137.38;5036701;28;19925;-51
2022/12/12 09:34:55;;;;;;;;;;;;;;;4.89;58.98;99152.09;5036651;28;19925;-52
2022/12/12 09:37:21;;;;;;;;;;;;;;;4.82;59.51;99138.31;5036826;28;19951;-54
2022/12/12 09:39:46;;;;;;;;;;;;;;;4.92;59.28;99144.25;5043047;28;20019;-53
2022/12/12 09:42:35;;;;;;;;;;;;;;;4.82;59.59;99137.47;5051147;28;19925;-52
2022/12/12 09:45:05;;;;;;;;;;;;;;;4.85;59.68;99145.22;5044789;28;19968;-55
2022/12/12 09:47:33;;;;;;;;;;;;;;;4.69;60.60;99142.03;5049489;28;19920;-54
2022/12/12 09:50:01;;;;;;;;;;;;;;;4.71;60.23;99148.09;5036320;28;19982;-53
2022/12/12 09:52:32;;;;;;;;;;;;;;;4.80;60.40;99141.88;5042477;28;20016;-53
2022/12/12 09:55:02;;;;;;;;;;;;;;;4.93;59.87;99148.56;5036185;28;20347;-52
2022/12/12 09:57:37;;;;;;;;;;;;;;;4.87;60.27;99146.09;5036757;28;20339;-54
2022/12/12 10:00:08;;;;;;;;;;;;;;;4.98;60.39;99138.06;5034189;28;19944;-51
2022/12/12 10:02:43;;;;;;;;;;;;;;;4.83;60.37;99147.03;5045641;28;19935;-53
2022/12/12 10:05:47;;;;;;;;;;;;;;;5.06;60.12;99144.81;5040976;28;19920;-51
2022/12/12 10:08:12;;;;;;;;;;;;;;;5.15;60.08;99149.88;5001313;28;20389;-54
2022/12/12 10:10:42;;;;;;;;;;;;;;;4.99;60.35;99134.56;4995741;28;19965;-54
2022/12/12 10:13:13;;;;;;;;;;;;;;;5.31;59.69;99140.03;5014887;28;19952;-51
2022/12/12 10:15:44;;;;;;;;;;;;;;;5.36;59.83;99146.00;5037183;28;19928;-54
2022/12/12 10:18:15;;;;;;;;;;;;;;;5.42;60.16;99142.38;5041362;28;19928;-52
2022/12/12 10:20:44;;;;;;;;;;;;;;;5.34;60.55;99149.50;5035991;28;19927;-51
2022/12/12 10:23:15;;;;;;;;;;;;;;;5.13;61.37;99138.63;5035663;28;20003;-54
2022/12/12 10:25:56;;;;;;;;;;;;;;;5.13;61.58;99138.63;5042890;28;20011;-57
2022/12/12 10:28:25;;;;;;;;;;;;;;;5.17;61.39;99137.66;5037313;28;20397;-50
2022/12/12 10:30:51;;;;;;;;;;;;;;;5.27;61.39;99127.09;5037864;28;20285;-51
2022/12/12 10:33:35;;;;;;;;;;;;;;;5.11;61.59;99150.81;5035799;28;20377;-55
2022/12/12 10:36:12;;;;;;;;;;;;;;;5.38;61.17;99127.72;5044267;28;19964;-54
2022/12/12 10:38:46;;;;;;;;;;;;;;;5.27;62.27;99132.31;5048810;28;19921;-52
2022/12/12 10:41:34;;;;;;;;;;;;;;;5.31;62.68;99141.78;5048075;28;19927;-55
2022/12/12 10:43:59;;;;;;;;;;;;;;;5.23;63.73;99149.72;5026572;28;19921;-55
2022/12/12 10:46:39;;;;;;;;;;;;;;;4.99;65.17;99139.75;5034847;28;19928;-53
2022/12/12 10:49:18;;;;;;;;;;;;;;;5.00;65.30;99137.16;5035883;28;19944;-53
2022/12/12 10:51:45;;;;;;;;;;;;;;;5.08;65.74;99140.47;5046642;28;20367;-54
2022/12/12 10:54:16;;;;;;;;;;;;;;;5.15;65.01;99126.44;5038988;28;20376;-52
2022/12/12 10:57:01;;;;;;;;;;;;;;;5.03;65.46;99116.28;5047283;28;20003;-53
2022/12/12 10:59:27;;;;;;;;;;;;;;;5.07;64.93;99125.75;5050682;28;20386;-55
2022/12/12 11:01:58;;;;;;;;;;;;;;;4.94;65.57;99130.28;5044139;28;19929;-56
2022/12/12 11:04:26;;;;;;;;;;;;;;;4.67;67.17;99136.88;5039504;28;19943;-55
2022/12/12 11:06:52;;;;;;;;;;;;;;;4.46;68.08;99132.03;5039331;28;19943;-55
2022/12/12 11:09:19;;;;;;;;;;;;;;;4.69;68.02;99123.84;5044374;28;20273;-51
2022/12/12 11:12:00;;;;;;;;;;;;;;;4.69;68.24;99121.22;5043524;28;19917;-51
2022/12/12 11:14:31;;;;;;;;;;;;;;;4.55;67.73;99118.88;5052528;28;20000;-54
2022/12/12 11:16:57;;;;;;;;;;;;;;;4.87;67.04;99115.69;5045402;28;20467;-54
2022/12/12 11:19:24;;;;;;;;;;;;;;;4.76;66.90;99111.56;5049351;28;20556;-54
2022/12/12 11:21:50;;;;;;;;;;;;;;;4.92;66.76;99107.81;5056323;28;19919;-54
2022/12/12 11:24:19;;;;;;;;;;;;;;;4.84;66.10;99110.53;5056336;28;20383;-51
2022/12/12 11:26:45;;;;;;;;;;;;;;;4.91;65.61;99106.09;5044058;28;19921;-53
2022/12/12 11:29:26;;;;;;;;;;;;;;;4.86;65.64;99108.75;5041987;28;19924;-54
2022/12/12 11:31:51;;;;;;;;;;;;;;;5.05;65.04;99100.59;5055774;28;20007;-55
2022/12/12 11:34:17;;;;;;;;;;;;;;;5.00;64.86;99098.09;5037825;28;20000;-52
2022/12/12 11:36:42;;;;;;;;;;;;;;;4.75;64.52;99097.72;5037141;28;20372;-52
2022/12/12 11:39:20;;;;;;;;;;;;;;;5.00;64.68;99099.84;5039355;28;20403;-53
2022/12/12 11:41:58;;;;;;;;;;;;;;;4.90;64.71;99117.38;5057198;28;20011;-52
2022/12/12 11:44:26;;;;;;;;;;;;;;;4.89;64.59;99107.84;5041144;28;19971;-52
2022/12/12 11:46:51;;;;;;;;;;;;;;;4.90;64.43;99106.94;5036327;28;20412;-54
2022/12/12 11:49:18;;;;;;;;;;;;;;;5.04;64.19;99102.34;5039373;28;20023;-57
2022/12/12 11:51:43;;;;;;;;;;;;;;;5.04;64.17;99112.78;5053839;28;19920;-54
2022/12/12 11:54:09;;;;;;;;;;;;;;;4.82;64.51;99106.25;5056391;28;19921;-51
2022/12/12 11:56:41;;;;;;;;;;;;;;;4.91;64.42;99111.31;5055339;28;19935;-50
2022/12/12 11:59:18;;;;;;;;;;;;;;;5.00;64.35;99120.69;5056258;28;19924;-54
2022/12/12 12:01:57;;;;;;;;;;;;;;;5.20;64.02;99108.13;5053013;28;20430;-54
2022/12/12 12:04:42;;;;;;;;;;;;;;;4.72;64.84;99123.78;5054964;28;19943;-53
2022/12/12 12:07:27;;;;;;;;;;;;;;;4.87;64.65;99115.69;5056367;28;19925;-51
2022/12/12 12:09:57;;;;;;;;;;;;;;;4.75;64.65;99126.34;5034333;28;19928;-54
2022/12/12 12:12:22;;;;;;;;;;;;;;;4.90;64.81;99117.38;5055526;28;19931;-51
2022/12/12 12:14:57;;;;;;;;;;;;;;;4.91;64.70;99114.75;5056022;28;20003;-53
2022/12/12 12:17:25;;;;;;;;;;;;;;;4.66;65.01;99110.88;5056128;28;20327;-53
2022/12/12 12:19:50;;;;;;;;;;;;;;;4.83;65.11;99098.44;5056108;28;20383;-51
2022/12/12 12:22:24;;;;;;;;;;;;;;;4.83;64.18;99093.22;5043241;28;20008;-52
2022/12/12 12:24:52;;;;;;;;;;;;;;;4.87;64.00;99101.84;5054899;28;20415;-52
2022/12/12 12:27:37;;;;;;;;;;;;;;;4.85;63.64;99117.47;5054995;28;19960;-53
2022/12/12 12:30:11;;;;;;;;;;;;;;;5.09;63.15;99105.72;5044806;28;20333;-52
2022/12/12 12:32:44;;;;;;;;;;;;;;;5.12;63.08;99099.59;5035954;28;20289;-51
2022/12/12 12:35:18;;;;;;;;;;;;;;;5.20;62.59;99097.69;5035954;28;20349;-50
2022/12/12 12:38:00;;;;;;;;;;;;;;;5.15;62.55;99099.56;5035738;28;19917;-51
2022/12/12 12:40:28;;;;;;;;;;;;;;;5.36;62.17;99108.66;5036097;28;19924;-52
2022/12/12 12:43:00;;;;;;;;;;;;;;;5.24;62.17;99104.56;5035772;28;20357;-54
2022/12/12 12:45:41;;;;;;;;;;;;;;;5.40;62.08;99111.16;5035721;28;19925;-53
2022/12/12 12:48:12;;;;;;;;;;;;;;;5.48;61.87;99112.75;5035629;28;19924;-54
2022/12/12 12:50:40;;;;;;;;;;;;;;;5.39;61.64;99108.63;5036499;28;20705;-54
2022/12/12 12:53:23;;;;;;;;;;;;;;;5.22;61.82;99114.13;5036956;28;19979;-53
2022/12/12 12:55:50;;;;;;;;;;;;;;;5.16;61.98;99119.47;5034350;28;19921;-51
2022/12/12 12:58:23;;;;;;;;;;;;;;;5.38;61.57;99114.69;5035328;28;20316;-54
2022/12/12 13:00:52;;;;;;;;;;;;;;;5.35;61.30;99112.16;5042598;28;19943;-53
2022/12/12 13:03:21;;;;;;;;;;;;;;;5.33;61.16;99104.38;5055132;28;19916;-56
2022/12/12 13:05:50;;;;;;;;;;;;;;;5.09;61.58;99105.72;5055032;28;19917;-52
2022/12/12 13:08:23;;;;;;;;;;;;;;;5.20;61.02;99118.53;5054615;28;19996;-56
2022/12/12 13:10:50;;;;;;;;;;;;;;;5.14;61.33;99103.03;5053511;28;20371;-52
2022/12/12 13:13:23;;;;;;;;;;;;;;;5.24;61.21;99103.72;5054790;28;19924;-55
2022/12/12 13:15:51;;;;;;;;;;;;;;;5.22;61.20;99111.53;5054659;28;19952;-53
2022/12/12 13:18:17;;;;;;;;;;;;;;;5.31;61.17;99110.53;5053512;28;19917;-55